createdAt,value
2023-02-26T00:02:48.821Z,1.80
2023-02-26T00:05:51.756Z,1.56
2023-02-26T00:08:54.892Z,1.57
2023-02-26T00:11:59.703Z,1.55
2023-02-26T00:15:02.910Z,1.47
2023-02-26T00:18:14.655Z,1.33
2023-02-26T00:21:19.739Z,1.51
2023-02-26T00:24:22.460Z,1.41
2023-02-26T00:27:25.194Z,1.29
2023-02-26T00:30:28.781Z,1.32
2023-02-26T00:33:32.412Z,1.36
2023-02-26T00:36:38.146Z,1.40
2023-02-26T00:39:47.232Z,1.49
2023-02-26T00:42:51.017Z,1.50
2023-02-26T00:46:08.854Z,1.56
2023-02-26T00:49:34.575Z,1.75
2023-02-26T00:53:08.858Z,1.88
2023-02-26T00:56:11.575Z,1.79
2023-02-26T00:59:14.308Z,1.81
2023-02-26T01:02:17.172Z,1.88
2023-02-26T01:05:21.108Z,1.91
2023-02-26T01:08:33.368Z,1.93
2023-02-26T01:11:37.344Z,2.02
2023-02-26T01:14:40.561Z,2.12
2023-02-26T01:17:53.936Z,2.04
2023-02-26T01:21:05.006Z,2.17
2023-02-26T01:24:14.424Z,1.89
2023-02-26T01:27:17.354Z,1.64
2023-02-26T01:30:20.982Z,1.75
2023-02-26T01:33:31.809Z,1.34
2023-02-26T01:36:43.696Z,1.03
2023-02-26T01:40:37.589Z,0.82
2023-02-26T01:44:00.737Z,0.64
2023-02-26T01:47:18.928Z,0.71
2023-02-26T01:50:32.145Z,0.83
2023-02-26T01:53:34.975Z,0.89
2023-02-26T01:56:38.917Z,1.02
2023-02-26T01:59:46.318Z,1.23
2023-02-26T02:02:50.530Z,1.18
2023-02-26T02:06:01.884Z,1.22
2023-02-26T02:09:06.467Z,1.62
2023-02-26T02:12:18.115Z,1.41
2023-02-26T02:15:23.500Z,1.20
2023-02-26T02:19:04.679Z,1.11
2023-02-26T02:22:38.294Z,0.88
2023-02-26T02:26:15.298Z,1.06
2023-02-26T02:29:30.282Z,1.02
2023-02-26T02:32:47.037Z,1.38
2023-02-26T02:35:56.445Z,1.59
2023-02-26T02:39:05.595Z,1.45
2023-02-26T02:42:25.634Z,1.48
2023-02-26T02:46:05.560Z,1.37
2023-02-26T02:49:16.303Z,1.38
2023-02-26T02:52:49.125Z,1.17
2023-02-26T02:56:12.938Z,1.12
2023-02-26T02:59:22.235Z,1.14
2023-02-26T03:02:58.209Z,1.11
2023-02-26T03:06:01.514Z,1.49
2023-02-26T03:09:06.739Z,1.58
2023-02-26T03:12:09.880Z,1.47
2023-02-26T03:15:15.558Z,1.46
2023-02-26T03:18:51.543Z,1.58
2023-02-26T03:21:58.461Z,1.45
2023-02-26T03:26:28.841Z,1.35
2023-02-26T03:29:40.518Z,1.08
2023-02-26T03:32:56.965Z,1.01
2023-02-26T03:36:08.632Z,1.04
2023-02-26T03:39:39.455Z,1.19
2023-02-26T03:42:54.247Z,1.20
2023-02-26T03:46:01.878Z,1.25
2023-02-26T03:49:10.017Z,1.04
2023-02-26T03:52:14.721Z,0.80
2023-02-26T03:55:29.533Z,0.82
2023-02-26T03:58:42.445Z,0.68
2023-02-26T04:02:23.388Z,0.65
2023-02-26T04:05:43.625Z,0.70
2023-02-26T04:08:47.416Z,0.53
2023-02-26T04:11:53.283Z,0.58
2023-02-26T04:14:57.648Z,0.65
2023-02-26T04:18:01.362Z,0.81
2023-02-26T04:21:04.762Z,0.68
2023-02-26T04:24:07.712Z,0.91
2023-02-26T04:27:11.708Z,0.86
2023-02-26T04:30:14.587Z,0.92
2023-02-26T04:33:17.377Z,0.82
2023-02-26T04:36:20.429Z,0.78
2023-02-26T04:39:23.594Z,0.70
2023-02-26T04:42:27.430Z,0.70
2023-02-26T04:45:30.928Z,0.66
2023-02-26T04:48:40.448Z,0.62
2023-02-26T04:51:43.861Z,0.69
2023-02-26T04:54:48.595Z,0.74
2023-02-26T04:57:52.951Z,0.55
2023-02-26T05:00:59.362Z,0.54
2023-02-26T05:04:02.344Z,0.51
2023-02-26T05:07:05.978Z,0.51
2023-02-26T05:10:09.932Z,0.48
2023-02-26T05:13:12.709Z,0.53
2023-02-26T05:16:15.637Z,0.47
2023-02-26T05:19:18.464Z,0.44
2023-02-26T05:22:23.465Z,0.41
2023-02-26T05:25:26.345Z,0.42
2023-02-26T05:28:30.067Z,0.50
2023-02-26T05:31:33.287Z,0.58
2023-02-26T05:34:36.064Z,0.49
2023-02-26T05:37:39.378Z,0.45
2023-02-26T05:40:42.283Z,0.55
2023-02-26T05:43:45.061Z,0.54
2023-02-26T05:46:47.937Z,0.58
2023-02-26T05:49:50.750Z,0.53
2023-02-26T05:52:53.811Z,0.52
2023-02-26T05:55:56.782Z,0.51
2023-02-26T05:58:59.514Z,0.46
2023-02-26T06:02:02.496Z,0.52
2023-02-26T06:05:05.771Z,0.55
2023-02-26T06:08:08.667Z,0.47
2023-02-26T06:11:11.530Z,0.54
2023-02-26T06:14:14.383Z,0.56
2023-02-26T06:17:17.313Z,0.55
2023-02-26T06:20:20.328Z,0.71
2023-02-26T06:23:23.223Z,0.64
2023-02-26T06:26:26.425Z,0.73
2023-02-26T06:29:29.337Z,0.78
2023-02-26T06:32:32.149Z,0.78
2023-02-26T06:35:35.010Z,0.87
2023-02-26T06:38:38.034Z,0.91
2023-02-26T06:41:40.974Z,0.79
2023-02-26T06:44:43.802Z,0.82
2023-02-26T06:47:46.640Z,1.00
2023-02-26T06:50:49.325Z,0.97
2023-02-26T06:53:52.146Z,0.93
2023-02-26T06:56:57.856Z,0.88
2023-02-26T07:00:01.220Z,0.81
2023-02-26T07:03:04.810Z,0.93
2023-02-26T07:06:26.107Z,0.87
2023-02-26T07:09:29.946Z,0.87
2023-02-26T07:12:32.932Z,0.83
2023-02-26T07:15:35.905Z,0.79
2023-02-26T07:18:38.682Z,0.86
2023-02-26T07:21:41.396Z,0.91
2023-02-26T07:24:44.534Z,1.05
2023-02-26T07:27:50.105Z,1.02
2023-02-26T07:30:55.702Z,1.09
2023-02-26T07:33:58.571Z,1.11
2023-02-26T07:37:01.303Z,1.27
2023-02-26T07:40:04.733Z,1.21
2023-02-26T07:43:07.812Z,1.08
2023-02-26T07:46:10.628Z,1.12
2023-02-26T07:49:13.474Z,1.00
2023-02-26T07:52:16.788Z,1.29
2023-02-26T07:55:20.071Z,1.17
2023-02-26T07:58:22.953Z,1.22
2023-02-26T08:01:25.732Z,1.29
2023-02-26T08:04:28.931Z,1.29
2023-02-26T08:07:31.793Z,1.38
2023-02-26T08:10:34.588Z,1.42
2023-02-26T08:13:37.402Z,1.53
2023-02-26T08:16:40.188Z,1.39
2023-02-26T08:19:43.334Z,1.58
2023-02-26T08:22:46.142Z,1.59
2023-02-26T08:25:49.250Z,1.54
2023-02-26T08:28:52.142Z,1.60
2023-02-26T08:31:55.210Z,1.53
2023-02-26T08:34:58.020Z,1.62
2023-02-26T08:38:00.835Z,1.65
2023-02-26T08:41:04.210Z,1.71
2023-02-26T08:44:08.371Z,1.76
2023-02-26T08:47:11.658Z,1.75
2023-02-26T08:50:15.236Z,1.78
2023-02-26T08:53:18.323Z,1.75
2023-02-26T08:56:21.363Z,1.71
2023-02-26T08:59:25.085Z,1.59
2023-02-26T09:02:27.918Z,1.79
2023-02-26T09:05:30.976Z,1.78
2023-02-26T09:08:36.721Z,1.87
2023-02-26T09:11:39.534Z,2.03
2023-02-26T09:14:42.391Z,1.99
2023-02-26T09:17:45.052Z,1.89
2023-02-26T09:20:47.810Z,1.88
2023-02-26T09:23:50.801Z,1.99
2023-02-26T09:26:53.588Z,1.96
2023-02-26T09:29:56.485Z,1.88
2023-02-26T09:32:59.561Z,2.31
2023-02-26T09:36:02.929Z,2.41
2023-02-26T09:39:06.302Z,2.34
2023-02-26T09:42:28.803Z,2.52
2023-02-26T09:45:36.998Z,2.31
2023-02-26T09:48:41.346Z,2.36
2023-02-26T09:51:46.651Z,2.48
2023-02-26T09:54:53.816Z,2.17
2023-02-26T09:58:00.924Z,2.41
2023-02-26T10:01:16.222Z,2.26
2023-02-26T10:04:37.606Z,2.21
2023-02-26T10:07:43.015Z,2.23
2023-02-26T10:10:51.772Z,2.42
2023-02-26T10:14:03.089Z,2.49
2023-02-26T10:17:33.416Z,2.33
2023-02-26T10:20:54.579Z,2.42
2023-02-26T10:24:01.591Z,2.44
2023-02-26T10:27:14.727Z,2.38
2023-02-26T10:30:40.334Z,2.38
2023-02-26T10:34:04.976Z,2.44
2023-02-26T10:37:29.024Z,2.42
2023-02-26T10:41:25.213Z,2.48
2023-02-26T10:44:37.659Z,2.49
2023-02-26T10:47:52.521Z,2.53
2023-02-26T10:51:00.908Z,2.49
2023-02-26T10:54:06.936Z,2.74
2023-02-26T10:57:21.109Z,2.80
2023-02-26T11:00:24.119Z,2.47
2023-02-26T11:03:42.669Z,2.66
2023-02-26T11:06:45.618Z,2.52
2023-02-26T11:09:48.364Z,2.52
2023-02-26T11:12:53.525Z,2.61
2023-02-26T11:15:59.761Z,2.69
2023-02-26T11:19:06.637Z,2.80
2023-02-26T11:22:14.296Z,2.55
2023-02-26T11:25:20.265Z,2.62
2023-02-26T11:28:31.469Z,2.66
2023-02-26T11:31:34.766Z,2.70
2023-02-26T11:34:38.631Z,2.54
2023-02-26T11:37:46.395Z,2.46
2023-02-26T11:40:56.178Z,2.52
2023-02-26T11:44:15.549Z,2.49
2023-02-26T11:47:23.993Z,2.42
2023-02-26T11:50:28.516Z,2.48
2023-02-26T11:53:35.474Z,2.51
2023-02-26T11:56:41.875Z,2.35
2023-02-26T11:59:49.349Z,2.42
2023-02-26T12:03:00.582Z,2.34
2023-02-26T12:06:04.629Z,2.35
2023-02-26T12:09:13.635Z,2.45
2023-02-26T12:12:28.063Z,2.42
2023-02-26T12:15:30.910Z,2.51
2023-02-26T12:18:52.224Z,2.49
2023-02-26T12:22:03.990Z,2.51
2023-02-26T12:25:18.671Z,2.42
2023-02-26T12:28:36.272Z,2.41
2023-02-26T12:31:47.922Z,2.56
2023-02-26T12:35:02.806Z,2.47
2023-02-26T12:38:30.681Z,2.54
2023-02-26T12:42:13.250Z,2.42
2023-02-26T12:45:38.036Z,2.36
2023-02-26T12:48:59.140Z,2.53
2023-02-26T12:52:38.835Z,2.49
2023-02-26T12:56:12.864Z,2.44
2023-02-26T12:59:37.621Z,2.69
2023-02-26T13:02:59.263Z,2.50
2023-02-26T13:06:29.693Z,2.36
2023-02-26T13:09:43.652Z,2.60
2023-02-26T13:13:18.954Z,2.48
2023-02-26T13:16:37.257Z,2.46
2023-02-26T13:20:11.405Z,2.61
2023-02-26T13:23:22.651Z,2.46
2023-02-26T13:26:27.964Z,2.47
2023-02-26T13:30:11.556Z,2.28
2023-02-26T13:33:22.225Z,2.54
2023-02-26T13:36:27.776Z,2.68
2023-02-26T13:39:51.356Z,2.52
2023-02-26T13:43:09.815Z,2.48
2023-02-26T13:46:25.289Z,2.73
2023-02-26T13:49:42.254Z,2.71
2023-02-26T13:53:03.655Z,2.78
2023-02-26T13:56:23.077Z,2.64
2023-02-26T13:59:54.589Z,2.40
2023-02-26T14:03:15.798Z,2.48
2023-02-26T14:06:37.689Z,2.30
2023-02-26T14:09:55.526Z,2.23
2023-02-26T14:13:23.826Z,2.15
2023-02-26T14:16:30.047Z,2.19
2023-02-26T14:19:52.654Z,2.50
2023-02-26T14:23:13.635Z,2.41
2023-02-26T14:26:19.368Z,2.22
2023-02-26T14:29:36.376Z,2.47
2023-02-26T14:32:54.590Z,2.56
2023-02-26T14:35:58.646Z,2.83
2023-02-26T14:39:06.092Z,2.57
2023-02-26T14:42:23.255Z,2.37
2023-02-26T14:45:37.452Z,2.30
2023-02-26T14:48:40.701Z,2.53
2023-02-26T14:52:00.815Z,2.41
2023-02-26T14:55:17.192Z,2.54
2023-02-26T14:58:27.867Z,2.41
2023-02-26T15:01:47.556Z,2.32
2023-02-26T15:05:05.288Z,2.23
2023-02-26T15:08:28.497Z,2.26
2023-02-26T15:12:04.592Z,2.29
2023-02-26T15:15:29.597Z,2.29
2023-02-26T15:18:54.857Z,2.44
2023-02-26T15:22:09.738Z,2.67
2023-02-26T15:25:34.610Z,2.85
2023-02-26T15:28:41.190Z,2.81
2023-02-26T15:31:53.298Z,2.75
2023-02-26T15:35:02.276Z,2.72
2023-02-26T15:38:05.273Z,2.71
2023-02-26T15:41:08.777Z,2.47
2023-02-26T15:44:18.879Z,2.35
2023-02-26T15:47:21.930Z,2.37
2023-02-26T15:50:29.711Z,2.33
2023-02-26T15:53:46.027Z,2.10
2023-02-26T15:56:49.805Z,1.98
2023-02-26T16:00:00.727Z,2.10
2023-02-26T16:03:04.859Z,2.10
2023-02-26T16:06:13.622Z,1.97
2023-02-26T16:09:26.205Z,2.10
2023-02-26T16:12:38.793Z,2.03
2023-02-26T16:15:42.391Z,2.04
2023-02-26T16:18:46.153Z,1.93
2023-02-26T16:21:53.270Z,1.92
2023-02-26T16:25:01.963Z,1.90
2023-02-26T16:28:22.278Z,1.88
2023-02-26T16:31:27.872Z,1.91
2023-02-26T16:34:39.790Z,1.85
2023-02-26T16:37:52.579Z,1.78
2023-02-26T16:41:16.639Z,1.74
2023-02-26T16:44:31.719Z,1.74
2023-02-26T16:47:38.094Z,1.62
2023-02-26T16:50:42.941Z,1.65
2023-02-26T16:53:54.140Z,1.61
2023-02-26T16:57:04.822Z,1.60
2023-02-26T17:00:17.822Z,1.63
2023-02-26T17:03:24.967Z,1.68
2023-02-26T17:06:31.385Z,1.72
2023-02-26T17:09:38.902Z,1.61
2023-02-26T17:12:50.807Z,1.69
2023-02-26T17:15:57.644Z,1.66
2023-02-26T17:19:02.009Z,1.71
2023-02-26T17:22:07.762Z,1.79
2023-02-26T17:25:16.146Z,1.75
2023-02-26T17:28:28.070Z,1.93
2023-02-26T17:31:31.168Z,1.85
2023-02-26T17:34:34.280Z,1.78
2023-02-26T17:37:37.761Z,1.79
2023-02-26T17:40:47.815Z,1.75
2023-02-26T17:43:50.979Z,1.86
2023-02-26T17:46:54.576Z,1.87
2023-02-26T17:49:57.692Z,1.79
2023-02-26T17:53:00.761Z,1.82
2023-02-26T17:56:04.265Z,1.78
2023-02-26T17:59:07.255Z,1.75
2023-02-26T18:02:27.101Z,1.70
2023-02-26T18:05:32.972Z,1.81
2023-02-26T18:08:36.342Z,1.84
2023-02-26T18:11:40.313Z,1.90
2023-02-26T18:14:43.899Z,2.08
2023-02-26T18:17:46.992Z,2.18
2023-02-26T18:20:52.133Z,2.06
2023-02-26T18:23:57.669Z,2.09
2023-02-26T18:27:00.962Z,1.91
2023-02-26T18:30:04.825Z,2.05
2023-02-26T18:33:08.916Z,2.16
2023-02-26T18:36:34.292Z,2.07
2023-02-26T18:39:38.407Z,1.99
2023-02-26T18:42:42.720Z,1.93
2023-02-26T18:45:47.725Z,1.89
2023-02-26T18:48:51.635Z,1.91
2023-02-26T18:51:54.803Z,1.99
2023-02-26T18:54:57.948Z,2.02
2023-02-26T18:58:01.027Z,1.99
2023-02-26T19:01:07.998Z,2.00
2023-02-26T19:04:11.255Z,1.93
2023-02-26T19:07:14.475Z,1.98
2023-02-26T19:10:18.777Z,2.05
2023-02-26T19:13:21.815Z,1.94
2023-02-26T19:16:25.062Z,1.91
2023-02-26T19:19:29.376Z,1.91
2023-02-26T19:22:32.576Z,1.94
2023-02-26T19:25:36.755Z,1.92
2023-02-26T19:28:39.977Z,2.06
2023-02-26T19:31:43.915Z,1.96
2023-02-26T19:34:47.306Z,2.07
2023-02-26T19:37:50.362Z,2.02
2023-02-26T19:40:53.484Z,1.90
2023-02-26T19:43:57.113Z,1.88
2023-02-26T19:47:00.286Z,1.97
2023-02-26T19:50:03.676Z,2.05
2023-02-26T19:53:06.974Z,1.93
2023-02-26T19:56:10.509Z,1.90
2023-02-26T19:59:13.745Z,1.91
2023-02-26T20:02:16.820Z,1.88
2023-02-26T20:05:20.010Z,1.76
2023-02-26T20:08:27.853Z,1.80
2023-02-26T20:11:30.954Z,1.78
2023-02-26T20:14:34.760Z,1.84
2023-02-26T20:17:38.595Z,1.85
2023-02-26T20:20:41.593Z,1.81
2023-02-26T20:23:44.644Z,1.80
2023-02-26T20:26:49.126Z,1.90
2023-02-26T20:29:52.216Z,1.97
2023-02-26T20:32:55.375Z,1.93
2023-02-26T20:35:59.533Z,1.91
2023-02-26T20:39:02.717Z,1.91
2023-02-26T20:42:06.408Z,1.92
2023-02-26T20:45:09.804Z,1.98
2023-02-26T20:48:12.646Z,1.94
2023-02-26T20:51:16.074Z,2.07
2023-02-26T20:54:20.362Z,2.07
2023-02-26T20:57:23.409Z,1.96
2023-02-26T21:00:26.710Z,1.85
2023-02-26T21:03:30.003Z,1.92
2023-02-26T21:06:34.397Z,2.03
2023-02-26T21:09:37.651Z,2.13
2023-02-26T21:12:40.797Z,2.17
2023-02-26T21:15:43.862Z,2.16
2023-02-26T21:18:47.062Z,2.14
2023-02-26T21:21:49.971Z,1.92
2023-02-26T21:24:54.041Z,1.77
2023-02-26T21:27:57.611Z,1.73
2023-02-26T21:31:01.180Z,1.75
2023-02-26T21:34:23.666Z,1.63
2023-02-26T21:37:27.467Z,1.45
2023-02-26T21:40:31.998Z,1.55
2023-02-26T21:43:34.702Z,1.38
2023-02-26T21:46:37.763Z,1.27
2023-02-26T21:49:40.479Z,1.23
2023-02-26T21:52:43.190Z,1.24
2023-02-26T21:55:45.914Z,1.18
2023-02-26T21:58:48.764Z,1.14
2023-02-26T22:01:52.482Z,1.11
2023-02-26T22:04:55.326Z,1.10
2023-02-26T22:07:58.050Z,1.15
2023-02-26T22:11:00.812Z,1.15
2023-02-26T22:14:05.140Z,1.02
2023-02-26T22:17:07.985Z,1.08
2023-02-26T22:20:11.636Z,1.12
2023-02-26T22:23:14.601Z,1.14
2023-02-26T22:26:17.972Z,0.91
2023-02-26T22:29:20.865Z,0.97
2023-02-26T22:32:23.886Z,0.94
2023-02-26T22:35:26.745Z,0.77
2023-02-26T22:38:29.493Z,0.75
2023-02-26T22:41:33.948Z,0.76
2023-02-26T22:44:36.905Z,0.74
2023-02-26T22:47:39.993Z,0.79
2023-02-26T22:50:42.798Z,0.79
2023-02-26T22:53:46.147Z,0.75
2023-02-26T22:56:48.896Z,0.61
2023-02-26T22:59:51.869Z,0.63
2023-02-26T23:02:54.971Z,0.57
2023-02-26T23:05:58.823Z,0.55
2023-02-26T23:09:02.162Z,0.61
2023-02-26T23:12:06.025Z,0.65
2023-02-26T23:15:10.148Z,0.72
2023-02-26T23:18:13.157Z,0.69
2023-02-26T23:21:16.538Z,0.81
2023-02-26T23:24:19.446Z,0.84
2023-02-26T23:27:22.598Z,0.88
2023-02-26T23:30:25.665Z,0.76
2023-02-26T23:33:28.395Z,0.81
2023-02-26T23:36:31.141Z,0.81
2023-02-26T23:39:33.960Z,0.82
2023-02-26T23:42:36.848Z,0.83
2023-02-26T23:45:39.764Z,0.85
2023-02-26T23:48:43.150Z,0.89
2023-02-26T23:51:46.505Z,0.85
2023-02-26T23:54:49.375Z,0.94
2023-02-26T23:57:52.285Z,0.88
